createdAt,value
2023-05-13T00:00:49.487Z,12.72
2023-05-13T00:03:17.425Z,12.68
2023-05-13T00:05:45.847Z,12.64
2023-05-13T00:08:13.859Z,12.63
2023-05-13T00:10:41.570Z,12.60
2023-05-13T00:13:09.259Z,12.60
2023-05-13T00:15:37.430Z,12.57
2023-05-13T00:18:05.640Z,12.51
2023-05-13T00:20:33.629Z,12.51
2023-05-13T00:23:03.286Z,12.48
2023-05-13T00:25:31.069Z,12.48
2023-05-13T00:27:58.851Z,12.45
2023-05-13T00:30:26.616Z,12.41
2023-05-13T00:32:54.481Z,12.36
2023-05-13T00:35:22.753Z,12.32
2023-05-13T00:37:50.554Z,12.26
2023-05-13T00:40:22.829Z,12.23
2023-05-13T00:42:51.505Z,12.22
2023-05-13T00:45:19.695Z,12.13
2023-05-13T00:47:49.633Z,12.07
2023-05-13T00:50:17.586Z,12.05
2023-05-13T00:52:46.105Z,12.02
2023-05-13T00:55:13.917Z,11.96
2023-05-13T00:57:42.015Z,11.92
2023-05-13T01:00:11.418Z,11.89
2023-05-13T01:03:07.589Z,11.86
2023-05-13T01:05:48.985Z,11.86
2023-05-13T01:08:36.878Z,11.86
2023-05-13T01:11:24.553Z,11.85
2023-05-13T01:14:15.044Z,11.83
2023-05-13T01:17:14.385Z,11.81
2023-05-13T01:19:44.080Z,11.75
2023-05-13T01:22:12.267Z,11.75
2023-05-13T01:24:40.020Z,11.74
2023-05-13T01:27:08.519Z,11.68
2023-05-13T01:29:37.863Z,11.65
2023-05-13T01:32:07.821Z,11.65
2023-05-13T01:34:38.670Z,11.59
2023-05-13T01:37:07.830Z,11.57
2023-05-13T01:39:38.423Z,11.48
2023-05-13T01:42:11.081Z,11.45
2023-05-13T01:44:38.914Z,11.41
2023-05-13T01:47:07.143Z,11.41
2023-05-13T01:49:36.185Z,11.38
2023-05-13T01:52:04.533Z,11.35
2023-05-13T01:54:33.322Z,11.32
2023-05-13T01:57:07.224Z,11.34
2023-05-13T01:59:34.986Z,11.31
2023-05-13T02:02:04.222Z,11.28
2023-05-13T02:04:32.338Z,11.24
2023-05-13T02:07:01.114Z,11.20
2023-05-13T02:09:31.276Z,11.17
2023-05-13T02:12:00.339Z,11.16
2023-05-13T02:14:29.395Z,11.16
2023-05-13T02:16:57.269Z,11.13
2023-05-13T02:19:25.587Z,11.08
2023-05-13T02:21:53.371Z,11.08
2023-05-13T02:24:21.271Z,11.13
2023-05-13T02:26:49.235Z,11.20
2023-05-13T02:29:17.102Z,11.23
2023-05-13T02:31:45.024Z,11.34
2023-05-13T02:34:13.001Z,11.39
2023-05-13T02:36:41.534Z,11.50
2023-05-13T02:39:09.919Z,11.57
2023-05-13T02:41:38.386Z,11.68
2023-05-13T02:44:06.181Z,11.74
2023-05-13T02:46:34.097Z,11.81
2023-05-13T02:49:02.343Z,11.85
2023-05-13T02:51:32.516Z,11.92
2023-05-13T02:54:00.408Z,11.97
2023-05-13T02:56:29.887Z,12.03
2023-05-13T02:58:57.606Z,12.06
2023-05-13T03:01:26.966Z,12.06
2023-05-13T03:03:55.067Z,12.05
2023-05-13T03:06:22.864Z,11.99
2023-05-13T03:08:50.625Z,11.93
2023-05-13T03:11:18.354Z,11.86
2023-05-13T03:13:46.056Z,11.79
2023-05-13T03:16:15.134Z,11.72
2023-05-13T03:18:43.088Z,11.64
2023-05-13T03:21:11.340Z,11.54
2023-05-13T03:23:39.686Z,11.47
2023-05-13T03:26:07.725Z,11.41
2023-05-13T03:28:35.840Z,11.34
2023-05-13T03:31:03.827Z,11.27
2023-05-13T03:33:36.913Z,11.18
2023-05-13T03:36:07.181Z,11.14
2023-05-13T03:38:34.982Z,11.08
2023-05-13T03:41:03.071Z,11.08
2023-05-13T03:43:30.948Z,11.07
2023-05-13T03:46:02.617Z,11.04
2023-05-13T03:48:31.243Z,11.01
2023-05-13T03:51:02.933Z,11.04
2023-05-13T03:53:31.188Z,11.01
2023-05-13T03:55:58.885Z,11.06
2023-05-13T03:58:28.737Z,11.03
2023-05-13T04:00:58.393Z,11.04
2023-05-13T04:03:26.284Z,11.01
2023-05-13T04:05:54.123Z,11.01
2023-05-13T04:08:21.975Z,11.13
2023-05-13T04:10:50.372Z,11.14
2023-05-13T04:13:19.615Z,11.18
2023-05-13T04:15:47.574Z,11.28
2023-05-13T04:18:15.299Z,11.31
2023-05-13T04:20:43.136Z,11.35
2023-05-13T04:23:10.909Z,11.37
2023-05-13T04:25:38.839Z,11.37
2023-05-13T04:28:07.343Z,11.38
2023-05-13T04:30:40.061Z,11.35
2023-05-13T04:33:08.390Z,11.42
2023-05-13T04:35:38.296Z,11.45
2023-05-13T04:38:06.770Z,11.51
2023-05-13T04:40:34.671Z,11.61
2023-05-13T04:43:07.738Z,11.71
2023-05-13T04:45:42.809Z,11.78
2023-05-13T04:48:13.835Z,11.83
2023-05-13T04:50:46.791Z,11.87
2023-05-13T04:53:16.624Z,11.92
2023-05-13T04:55:50.692Z,11.96
2023-05-13T04:58:18.405Z,12.00
2023-05-13T05:00:46.594Z,12.06
2023-05-13T05:03:14.479Z,12.12
2023-05-13T05:05:42.576Z,12.19
2023-05-13T05:08:13.156Z,12.27
2023-05-13T05:10:41.423Z,12.30
2023-05-13T05:13:11.244Z,12.43
2023-05-13T05:15:39.797Z,12.47
2023-05-13T05:18:10.217Z,12.58
2023-05-13T05:20:40.076Z,12.64
2023-05-13T05:23:13.491Z,12.68
2023-05-13T05:25:41.271Z,12.77
2023-05-13T05:28:09.950Z,12.87
2023-05-13T05:30:41.788Z,12.95
2023-05-13T05:33:19.640Z,13.18
2023-05-13T05:35:48.305Z,13.42
2023-05-13T05:38:18.307Z,13.66
2023-05-13T05:40:47.765Z,13.91
2023-05-13T05:43:16.657Z,14.09
2023-05-13T05:45:46.612Z,14.29
2023-05-13T05:48:18.140Z,14.45
2023-05-13T05:50:46.163Z,14.59
2023-05-13T05:53:18.310Z,14.60
2023-05-13T05:55:46.571Z,14.57
2023-05-13T05:58:16.974Z,14.63
2023-05-13T06:00:45.116Z,14.57
2023-05-13T06:03:13.066Z,14.65
2023-05-13T06:05:41.063Z,14.57
2023-05-13T06:08:08.974Z,14.43
2023-05-13T06:10:38.670Z,14.38
2023-05-13T06:13:07.142Z,14.26
2023-05-13T06:15:36.418Z,14.22
2023-05-13T06:18:08.043Z,14.26
2023-05-13T06:20:35.948Z,14.28
2023-05-13T06:23:03.743Z,14.30
2023-05-13T06:25:31.474Z,14.42
2023-05-13T06:28:02.338Z,14.59
2023-05-13T06:30:31.336Z,14.88
2023-05-13T06:33:02.183Z,15.00
2023-05-13T06:35:31.764Z,15.20
2023-05-13T06:38:01.621Z,15.48
2023-05-13T06:40:29.313Z,15.79
2023-05-13T06:42:57.304Z,16.04
2023-05-13T06:45:30.637Z,15.97
2023-05-13T06:47:58.343Z,15.96
2023-05-13T06:50:26.266Z,16.02
2023-05-13T06:52:54.012Z,16.20
2023-05-13T06:55:21.800Z,16.23
2023-05-13T06:57:49.557Z,16.13
2023-05-13T07:00:17.828Z,15.93
2023-05-13T07:02:45.553Z,15.79
2023-05-13T07:05:13.600Z,15.72
2023-05-13T07:07:43.712Z,15.63
2023-05-13T07:10:12.255Z,15.73
2023-05-13T07:12:40.052Z,15.74
2023-05-13T07:15:09.421Z,15.78
2023-05-13T07:17:37.541Z,16.02
2023-05-13T07:20:06.076Z,16.25
2023-05-13T07:22:33.767Z,16.42
2023-05-13T07:25:01.636Z,16.58
2023-05-13T07:27:29.287Z,16.75
2023-05-13T07:29:56.933Z,16.95
2023-05-13T07:32:24.626Z,17.06
2023-05-13T07:34:52.486Z,17.20
2023-05-13T07:37:20.497Z,17.33
2023-05-13T07:39:48.342Z,17.24
2023-05-13T07:42:19.401Z,17.41
2023-05-13T07:44:47.232Z,17.47
2023-05-13T07:47:14.960Z,17.55
2023-05-13T07:49:45.591Z,17.65
2023-05-13T07:52:13.560Z,17.54
2023-05-13T07:54:41.247Z,17.23
2023-05-13T07:57:08.953Z,17.41
2023-05-13T07:59:37.163Z,17.63
2023-05-13T08:02:05.077Z,17.88
2023-05-13T08:04:33.186Z,17.99
2023-05-13T08:07:02.236Z,18.12
2023-05-13T08:09:30.102Z,18.32
2023-05-13T08:11:58.648Z,18.52
2023-05-13T08:14:26.384Z,18.68
2023-05-13T08:16:54.287Z,18.80
2023-05-13T08:19:22.365Z,18.87
2023-05-13T08:21:50.228Z,19.19
2023-05-13T08:24:17.877Z,19.18
2023-05-13T08:26:45.825Z,19.32
2023-05-13T08:29:15.733Z,19.32
2023-05-13T08:31:46.288Z,19.29
2023-05-13T08:34:14.053Z,19.43
2023-05-13T08:36:41.749Z,19.65
2023-05-13T08:39:09.732Z,19.90
2023-05-13T08:41:39.076Z,19.79
2023-05-13T08:44:07.571Z,19.83
2023-05-13T08:46:39.587Z,20.10
2023-05-13T08:49:09.534Z,20.17
2023-05-13T08:51:37.309Z,20.29
2023-05-13T08:54:09.201Z,20.48
2023-05-13T08:56:37.266Z,20.59
2023-05-13T08:59:08.516Z,20.65
2023-05-13T09:01:37.749Z,20.69
2023-05-13T09:04:09.226Z,20.68
2023-05-13T09:06:37.090Z,20.72
2023-05-13T09:09:05.991Z,21.02
2023-05-13T09:11:34.756Z,21.22
2023-05-13T09:14:08.481Z,21.45
2023-05-13T09:16:36.663Z,21.61
2023-05-13T09:19:07.054Z,21.82
2023-05-13T09:21:36.590Z,22.03
2023-05-13T09:24:13.490Z,21.96
2023-05-13T09:26:43.091Z,22.20
2023-05-13T09:29:31.254Z,22.35
2023-05-13T09:32:01.273Z,22.46
2023-05-13T09:34:33.115Z,22.80
2023-05-13T09:37:09.072Z,23.02
2023-05-13T09:39:41.877Z,23.02
2023-05-13T09:42:17.803Z,23.30
2023-05-13T09:44:47.271Z,23.11
2023-05-13T09:47:16.659Z,23.36
2023-05-13T09:50:00.127Z,23.43
2023-05-13T09:52:29.478Z,23.55
2023-05-13T09:55:01.157Z,23.71
2023-05-13T09:57:29.850Z,23.81
2023-05-13T10:00:01.610Z,24.01
2023-05-13T10:02:39.582Z,24.14
2023-05-13T10:05:10.031Z,23.66
2023-05-13T10:07:40.180Z,23.23
2023-05-13T10:10:09.658Z,23.16
2023-05-13T10:12:41.088Z,23.66
2023-05-13T10:15:10.098Z,23.41
2023-05-13T10:17:39.817Z,23.15
2023-05-13T10:20:11.188Z,23.07
2023-05-13T10:22:39.130Z,23.26
2023-05-13T10:25:08.793Z,23.73
2023-05-13T10:27:37.238Z,24.01
2023-05-13T10:30:09.758Z,24.32
2023-05-13T10:32:42.380Z,24.87
2023-05-13T10:35:15.716Z,25.40
2023-05-13T10:37:52.286Z,25.55
2023-05-13T10:40:35.040Z,25.31
2023-05-13T10:43:18.051Z,25.20
2023-05-13T10:46:12.416Z,25.06
2023-05-13T10:48:48.689Z,25.59
2023-05-13T10:51:18.225Z,25.88
2023-05-13T10:53:57.946Z,25.86
2023-05-13T10:56:29.424Z,26.10
2023-05-13T10:59:02.769Z,26.16
2023-05-13T11:01:36.085Z,26.43
2023-05-13T11:04:06.082Z,26.27
2023-05-13T11:06:39.699Z,26.27
2023-05-13T11:09:12.342Z,26.44
2023-05-13T11:11:40.964Z,26.61
2023-05-13T11:14:23.103Z,26.51
2023-05-13T11:17:04.657Z,26.70
2023-05-13T11:19:46.717Z,26.80
2023-05-13T11:22:16.816Z,26.98
2023-05-13T11:25:10.998Z,27.01
2023-05-13T11:27:41.119Z,27.35
2023-05-13T11:30:23.332Z,27.09
2023-05-13T11:33:02.930Z,27.35
2023-05-13T11:35:33.162Z,27.63
2023-05-13T11:38:03.112Z,27.93
2023-05-13T11:40:39.057Z,28.17
2023-05-13T11:43:08.067Z,27.94
2023-05-13T11:45:40.322Z,27.90
2023-05-13T11:48:24.820Z,27.97
2023-05-13T11:50:52.897Z,28.01
2023-05-13T11:53:22.743Z,27.98
2023-05-13T11:55:51.809Z,28.18
2023-05-13T11:58:22.261Z,27.90
2023-05-13T12:00:49.909Z,28.11
2023-05-13T12:03:17.994Z,28.01
2023-05-13T12:05:49.320Z,28.04
2023-05-13T12:08:17.345Z,27.79
2023-05-13T12:10:46.794Z,27.97
2023-05-13T12:13:15.108Z,28.00
2023-05-13T12:15:43.469Z,27.70
2023-05-13T12:18:11.522Z,28.22
2023-05-13T12:20:39.376Z,28.05
2023-05-13T12:23:07.455Z,28.24
2023-05-13T12:25:39.901Z,28.11
2023-05-13T12:28:11.121Z,28.38
2023-05-13T12:30:42.110Z,28.84
2023-05-13T12:33:17.801Z,28.55
2023-05-13T12:35:48.350Z,27.15
2023-05-13T12:38:19.393Z,26.25
2023-05-13T12:40:48.789Z,25.37
2023-05-13T12:43:19.728Z,24.75
2023-05-13T12:45:53.740Z,24.21
2023-05-13T12:48:25.578Z,23.93
2023-05-13T12:50:53.582Z,23.55
2023-05-13T12:53:21.465Z,23.19
2023-05-13T12:55:49.197Z,23.07
2023-05-13T12:58:16.972Z,23.09
2023-05-13T13:00:45.675Z,22.99
2023-05-13T13:03:13.610Z,23.04
2023-05-13T13:05:41.810Z,23.09
2023-05-13T13:08:09.487Z,23.11
2023-05-13T13:10:37.357Z,22.95
2023-05-13T13:13:05.339Z,22.49
2023-05-13T13:15:33.928Z,22.14
2023-05-13T13:18:01.790Z,21.77
2023-05-13T13:20:29.598Z,21.54
2023-05-13T13:22:57.370Z,21.17
2023-05-13T13:25:26.879Z,20.93
2023-05-13T13:27:54.813Z,20.96
2023-05-13T13:30:23.531Z,21.74
2023-05-13T13:32:51.356Z,22.87
2023-05-13T13:35:19.401Z,23.78
2023-05-13T13:37:47.238Z,24.75
2023-05-13T13:40:15.104Z,25.28
2023-05-13T13:42:44.683Z,24.11
2023-05-13T13:45:15.723Z,23.57
2023-05-13T13:47:43.566Z,23.11
2023-05-13T13:50:11.651Z,22.75
2023-05-13T13:52:39.541Z,23.65
2023-05-13T13:55:08.101Z,24.43
2023-05-13T13:57:35.977Z,24.96
2023-05-13T14:00:03.985Z,25.68
2023-05-13T14:02:32.882Z,26.17
2023-05-13T14:05:03.967Z,26.39
2023-05-13T14:07:31.785Z,26.58
2023-05-13T14:10:01.234Z,26.54
2023-05-13T14:12:29.413Z,26.53
2023-05-13T14:14:57.181Z,26.54
2023-05-13T14:17:25.672Z,26.13
2023-05-13T14:19:55.584Z,26.57
2023-05-13T14:22:24.908Z,26.80
2023-05-13T14:24:53.589Z,26.95
2023-05-13T14:27:24.891Z,27.12
2023-05-13T14:29:52.580Z,27.21
2023-05-13T14:32:20.337Z,26.91
2023-05-13T14:34:48.083Z,27.08
2023-05-13T14:37:16.014Z,27.42
2023-05-13T14:39:43.667Z,27.54
2023-05-13T14:42:11.789Z,27.32
2023-05-13T14:44:41.546Z,27.66
2023-05-13T14:47:10.248Z,27.60
2023-05-13T14:49:38.920Z,27.69
2023-05-13T14:52:06.870Z,27.74
2023-05-13T14:54:38.010Z,27.49
2023-05-13T14:57:10.300Z,26.44
2023-05-13T14:59:39.033Z,25.35
2023-05-13T15:02:10.529Z,24.80
2023-05-13T15:04:38.335Z,25.33
2023-05-13T15:07:07.482Z,25.74
2023-05-13T15:09:35.339Z,26.09
2023-05-13T15:12:04.506Z,26.37
2023-05-13T15:14:32.283Z,26.22
2023-05-13T15:17:00.411Z,26.22
2023-05-13T15:19:28.429Z,26.10
2023-05-13T15:21:56.296Z,25.69
2023-05-13T15:24:24.078Z,25.34
2023-05-13T15:26:52.220Z,24.92
2023-05-13T15:29:19.882Z,24.47
2023-05-13T15:31:51.134Z,24.10
2023-05-13T15:34:18.769Z,23.87
2023-05-13T15:36:46.668Z,23.90
2023-05-13T15:39:16.651Z,23.74
2023-05-13T15:41:45.160Z,23.41
2023-05-13T15:44:13.047Z,23.12
2023-05-13T15:46:42.544Z,22.88
2023-05-13T15:49:10.583Z,22.90
2023-05-13T15:51:38.469Z,22.97
2023-05-13T15:54:06.785Z,22.95
2023-05-13T15:56:34.822Z,23.01
2023-05-13T15:59:02.517Z,23.09
2023-05-13T16:01:30.674Z,22.95
2023-05-13T16:03:58.761Z,22.94
2023-05-13T16:06:30.034Z,22.94
2023-05-13T16:09:02.018Z,22.75
2023-05-13T16:11:30.473Z,22.64
2023-05-13T16:13:58.359Z,22.54
2023-05-13T16:16:26.553Z,22.43
2023-05-13T16:18:54.507Z,22.32
2023-05-13T16:21:22.446Z,22.28
2023-05-13T16:23:51.096Z,22.23
2023-05-13T16:26:18.902Z,22.28
2023-05-13T16:28:46.883Z,22.03
2023-05-13T16:31:14.872Z,22.03
2023-05-13T16:33:42.682Z,21.75
2023-05-13T16:36:12.088Z,21.30
2023-05-13T16:38:41.687Z,20.92
2023-05-13T16:41:10.408Z,20.85
2023-05-13T16:43:38.140Z,20.58
2023-05-13T16:46:06.210Z,20.42
2023-05-13T16:48:33.886Z,20.41
2023-05-13T16:51:01.605Z,20.31
2023-05-13T16:53:29.437Z,20.27
2023-05-13T16:55:57.146Z,20.25
2023-05-13T16:58:24.973Z,20.16
2023-05-13T17:00:52.811Z,20.14
2023-05-13T17:03:20.895Z,20.03
2023-05-13T17:05:49.142Z,20.13
2023-05-13T17:08:18.963Z,20.25
2023-05-13T17:10:46.667Z,20.34
2023-05-13T17:13:14.509Z,20.25
2023-05-13T17:15:42.242Z,20.11
2023-05-13T17:18:10.073Z,19.86
2023-05-13T17:20:38.308Z,19.67
2023-05-13T17:23:06.447Z,19.22
2023-05-13T17:25:34.254Z,19.14
2023-05-13T17:28:02.070Z,18.90
2023-05-13T17:30:29.748Z,18.80
2023-05-13T17:32:57.423Z,18.61
2023-05-13T17:35:25.164Z,18.21
2023-05-13T17:37:52.871Z,17.99
2023-05-13T17:40:21.392Z,17.54
2023-05-13T17:42:50.400Z,17.33
2023-05-13T17:45:19.246Z,17.20
2023-05-13T17:47:47.167Z,16.99
2023-05-13T17:50:18.289Z,16.76
2023-05-13T17:52:46.162Z,16.48
2023-05-13T17:55:13.894Z,16.27
2023-05-13T17:57:41.598Z,16.28
2023-05-13T18:00:10.130Z,16.23
2023-05-13T18:02:40.350Z,16.23
2023-05-13T18:05:09.408Z,16.18
2023-05-13T18:07:37.361Z,16.14
2023-05-13T18:10:05.787Z,16.03
2023-05-13T18:12:33.502Z,16.06
2023-05-13T18:15:01.373Z,16.02
2023-05-13T18:17:29.217Z,16.00
2023-05-13T18:19:56.929Z,16.06
2023-05-13T18:22:24.879Z,16.02
2023-05-13T18:24:52.520Z,16.02
2023-05-13T18:27:20.274Z,16.02
2023-05-13T18:29:48.086Z,15.99
2023-05-13T18:32:18.180Z,15.90
2023-05-13T18:34:45.976Z,15.94
2023-05-13T18:37:15.066Z,15.99
2023-05-13T18:39:45.883Z,15.93
2023-05-13T18:42:13.741Z,15.89
2023-05-13T18:44:41.466Z,15.81
2023-05-13T18:47:09.317Z,15.76
2023-05-13T18:49:37.075Z,15.67
2023-05-13T18:52:06.251Z,15.63
2023-05-13T18:54:33.955Z,15.55
2023-05-13T18:57:01.933Z,15.46
2023-05-13T18:59:29.634Z,15.41
2023-05-13T19:01:58.289Z,15.32
2023-05-13T19:04:26.288Z,15.25
2023-05-13T19:06:54.257Z,15.18
2023-05-13T19:09:22.647Z,15.11
2023-05-13T19:11:50.753Z,15.08
2023-05-13T19:14:18.481Z,15.00
2023-05-13T19:16:46.938Z,14.90
2023-05-13T19:19:14.810Z,14.90
2023-05-13T19:21:42.659Z,14.83
2023-05-13T19:24:10.399Z,14.79
2023-05-13T19:26:38.188Z,14.75
2023-05-13T19:29:06.212Z,14.72
2023-05-13T19:31:34.133Z,14.73
2023-05-13T19:34:01.942Z,14.73
2023-05-13T19:36:29.753Z,14.73
2023-05-13T19:38:57.445Z,14.75
2023-05-13T19:41:25.180Z,14.75
2023-05-13T19:43:52.879Z,14.77
2023-05-13T19:46:20.853Z,14.79
2023-05-13T19:48:48.812Z,14.84
2023-05-13T19:51:16.495Z,14.84
2023-05-13T19:53:44.191Z,14.90
2023-05-13T19:56:12.102Z,14.93
2023-05-13T19:58:39.861Z,14.90
2023-05-13T20:01:07.980Z,14.94
2023-05-13T20:03:36.097Z,14.93
2023-05-13T20:06:04.209Z,14.88
2023-05-13T20:08:33.386Z,14.83
2023-05-13T20:11:01.216Z,14.81
2023-05-13T20:13:29.031Z,14.80
2023-05-13T20:15:56.773Z,14.79
2023-05-13T20:18:24.565Z,14.76
2023-05-13T20:20:53.817Z,14.75
2023-05-13T20:23:21.626Z,14.79
2023-05-13T20:25:49.425Z,14.81
2023-05-13T20:28:17.322Z,14.84
2023-05-13T20:30:45.117Z,14.84
2023-05-13T20:33:14.057Z,14.88
2023-05-13T20:35:42.368Z,14.88
2023-05-13T20:38:10.031Z,14.93
2023-05-13T20:40:38.047Z,14.97
2023-05-13T20:43:08.071Z,15.04
2023-05-13T20:45:39.453Z,15.07
2023-05-13T20:48:08.043Z,15.11
2023-05-13T20:50:37.515Z,15.14
2023-05-13T20:53:06.005Z,15.18
2023-05-13T20:55:35.090Z,15.18
2023-05-13T20:58:02.734Z,15.15
2023-05-13T21:00:30.364Z,15.10
2023-05-13T21:02:58.203Z,15.07
2023-05-13T21:05:26.107Z,15.00
2023-05-13T21:07:54.118Z,14.94
2023-05-13T21:10:22.516Z,14.91
2023-05-13T21:12:51.286Z,14.87
2023-05-13T21:15:19.043Z,14.87
2023-05-13T21:17:47.318Z,14.81
2023-05-13T21:20:15.256Z,14.73
2023-05-13T21:22:42.986Z,14.65
2023-05-13T21:25:11.243Z,14.55
2023-05-13T21:27:39.701Z,14.47
2023-05-13T21:30:11.139Z,14.42
2023-05-13T21:32:39.108Z,14.29
2023-05-13T21:35:07.736Z,14.24
2023-05-13T21:37:35.941Z,14.15
2023-05-13T21:40:03.908Z,14.05
2023-05-13T21:42:31.611Z,13.97
2023-05-13T21:44:59.241Z,13.88
2023-05-13T21:47:29.571Z,13.81
2023-05-13T21:49:57.517Z,13.81
2023-05-13T21:52:25.711Z,13.80
2023-05-13T21:54:56.504Z,13.73
2023-05-13T21:57:25.674Z,13.61
2023-05-13T21:59:53.334Z,13.56
2023-05-13T22:02:21.102Z,13.46
2023-05-13T22:04:48.834Z,13.40
2023-05-13T22:07:16.471Z,13.40
2023-05-13T22:09:45.243Z,13.33
2023-05-13T22:12:12.922Z,13.30
2023-05-13T22:14:40.822Z,13.33
2023-05-13T22:17:10.016Z,13.33
2023-05-13T22:19:38.460Z,13.30
2023-05-13T22:22:06.882Z,13.35
2023-05-13T22:24:34.620Z,13.39
2023-05-13T22:27:02.321Z,13.40
2023-05-13T22:29:30.083Z,13.46
2023-05-13T22:31:58.022Z,13.50
2023-05-13T22:34:27.337Z,13.49
2023-05-13T22:36:55.350Z,13.47
2023-05-13T22:39:23.155Z,13.44
2023-05-13T22:41:50.946Z,13.38
2023-05-13T22:44:18.684Z,13.32
2023-05-13T22:46:46.644Z,13.29
2023-05-13T22:49:14.497Z,13.23
2023-05-13T22:51:43.101Z,13.23
2023-05-13T22:54:10.960Z,13.19
2023-05-13T22:56:38.609Z,13.12
2023-05-13T22:59:06.528Z,13.09
2023-05-13T23:01:34.442Z,13.08
2023-05-13T23:04:03.092Z,13.08
2023-05-13T23:06:30.857Z,13.03
2023-05-13T23:08:58.733Z,13.01
2023-05-13T23:11:26.413Z,12.95
2023-05-13T23:13:54.132Z,12.87
2023-05-13T23:16:21.912Z,12.87
2023-05-13T23:18:49.734Z,12.81
2023-05-13T23:21:17.719Z,12.74
2023-05-13T23:23:45.436Z,12.67
2023-05-13T23:26:15.858Z,12.64
2023-05-13T23:28:43.515Z,12.58
2023-05-13T23:31:11.214Z,12.55
2023-05-13T23:33:38.890Z,12.54
2023-05-13T23:36:07.853Z,12.44
2023-05-13T23:38:38.673Z,12.38
2023-05-13T23:41:06.543Z,12.37
2023-05-13T23:43:34.623Z,12.32
2023-05-13T23:46:02.640Z,12.29
2023-05-13T23:48:31.831Z,12.26
2023-05-13T23:50:59.570Z,12.22
2023-05-13T23:53:27.315Z,12.23
2023-05-13T23:55:55.058Z,12.22
2023-05-13T23:58:22.748Z,12.20
